Terminal Aerodrome Forecast
Issued by NWS Springfield, MO

Home | Current Version | Previous Version | Text Only | Print | Product List | Glossary On
Versions: 1 2 3 4 5 6 7 8 9 10 11 12 13 14 15 16
000
FTUS43 KSGF 311600 AAA
TAFSGF
TAF AMD
KSGF 311624Z 3116/0112 35020G27KT P6SM SCT025
     FM311900 36014G22KT P6SM SCT035
     FM312300 01007KT P6SM SKC=

USA.gov is the U.S. government's official web portal to all federal, state and local government web resources and services.